createdAt,value
2023-03-30T05:31:59.236Z,13.30
2023-03-30T05:36:54.336Z,13.10
2023-03-30T05:39:23.257Z,13.30
2023-03-30T05:46:49.049Z,13.30
2023-03-30T05:49:16.290Z,13.00
2023-03-30T05:54:12.736Z,12.90
2023-03-30T05:56:42.474Z,13.10
2023-03-30T05:59:10.620Z,12.80
2023-03-30T06:04:06.663Z,12.60
2023-03-30T06:11:32.885Z,12.30
2023-03-30T06:14:00.602Z,12.50
2023-03-30T06:16:30.555Z,12.20
2023-03-30T06:36:19.591Z,12.00
2023-03-30T06:38:51.554Z,11.70
2023-03-30T06:41:19.240Z,11.90
2023-03-30T06:43:46.631Z,11.60
2023-03-30T06:46:16.052Z,11.80
2023-03-30T06:53:40.741Z,11.60
2023-03-30T07:01:10.640Z,11.70
2023-03-30T07:06:07.788Z,11.60
2023-03-30T07:08:35.877Z,11.60
2023-03-30T07:11:05.302Z,11.50
2023-03-30T07:13:34.543Z,11.60
2023-03-30T07:20:59.336Z,11.40
2023-03-30T07:35:47.014Z,11.60
2023-03-30T07:38:14.836Z,11.70
2023-03-30T07:48:06.425Z,11.80
2023-03-30T07:50:34.945Z,11.60
2023-03-30T08:12:49.212Z,11.50
2023-03-30T08:20:15.291Z,11.40
2023-03-30T08:30:08.583Z,11.40
2023-03-30T08:32:35.952Z,11.40
2023-03-30T08:35:03.649Z,11.40
2023-03-30T08:42:49.616Z,11.60
2023-03-30T08:47:49.708Z,11.70
2023-03-30T08:50:32.041Z,11.60
2023-03-30T08:55:44.511Z,12.00
2023-03-30T08:58:39.935Z,12.10
2023-03-30T09:03:59.846Z,12.60
2023-03-30T09:06:47.230Z,13.00
2023-03-30T09:09:18.639Z,13.50
2023-03-30T09:11:52.364Z,13.70
2023-03-30T09:14:47.805Z,13.70
2023-03-30T09:17:21.361Z,13.60
2023-03-30T09:19:56.977Z,13.50
2023-03-30T09:22:34.145Z,13.50
2023-03-30T09:27:42.868Z,13.20
2023-03-30T09:30:21.507Z,13.20
2023-03-30T09:33:29.988Z,13.20
2023-03-30T09:36:33.476Z,13.30
2023-03-30T09:41:52.013Z,13.00
2023-03-30T09:44:36.080Z,12.90
2023-03-30T09:47:24.860Z,12.90
2023-03-30T09:50:01.114Z,12.80
2023-03-30T09:52:32.210Z,12.70
2023-03-30T09:55:30.099Z,12.60
2023-03-30T09:58:21.263Z,12.60
2023-03-30T10:01:02.045Z,12.60
2023-03-30T10:03:30.501Z,12.80
2023-03-30T10:06:17.446Z,13.10
2023-03-30T10:08:55.461Z,13.00
2023-03-30T10:11:40.340Z,13.00
2023-03-30T10:14:20.112Z,13.40
2023-03-30T10:16:47.765Z,13.90
2023-03-30T10:19:22.034Z,14.00
2023-03-30T10:21:55.396Z,14.30
2023-03-30T10:24:28.573Z,14.30
2023-03-30T10:26:59.088Z,14.80
2023-03-30T10:29:29.108Z,14.90
2023-03-30T10:32:08.434Z,14.70
2023-03-30T10:34:55.039Z,14.70
2023-03-30T10:39:52.432Z,14.80
2023-03-30T10:42:25.769Z,15.50
2023-03-30T10:45:02.565Z,15.40
2023-03-30T10:50:20.147Z,15.30
2023-03-30T10:53:09.398Z,15.70
2023-03-30T10:56:13.353Z,16.90
2023-03-30T10:58:45.944Z,16.40
2023-03-30T11:03:47.634Z,16.40
2023-03-30T11:06:34.495Z,16.40
2023-03-30T11:09:05.447Z,16.70
2023-03-30T11:11:41.395Z,17.10
2023-03-30T11:14:16.968Z,17.40
2023-03-30T11:16:53.820Z,16.80
2023-03-30T11:19:37.117Z,17.20
2023-03-30T11:22:23.107Z,17.20
2023-03-30T11:24:52.150Z,16.50
2023-03-30T11:27:34.508Z,16.40
2023-03-30T11:30:27.485Z,16.40
2023-03-30T11:32:58.882Z,16.00
2023-03-30T11:35:33.724Z,16.00
2023-03-30T11:38:32.487Z,15.90
2023-03-30T11:41:13.494Z,15.60
2023-03-30T11:43:41.912Z,15.80
2023-03-30T11:46:30.524Z,16.30
2023-03-30T11:49:10.964Z,16.80
2023-03-30T11:52:04.609Z,17.10
2023-03-30T11:54:38.588Z,16.90
2023-03-30T11:57:21.252Z,17.40
2023-03-30T12:00:13.051Z,17.20
2023-03-30T12:02:53.012Z,17.40
2023-03-30T12:05:33.576Z,17.30
2023-03-30T12:08:01.278Z,17.10
2023-03-30T12:10:51.598Z,17.20
2023-03-30T12:13:21.538Z,17.20
2023-03-30T12:15:55.783Z,16.70
2023-03-30T12:18:33.601Z,17.10
2023-03-30T12:21:32.323Z,16.80
2023-03-30T12:24:17.621Z,16.80
2023-03-30T12:26:54.972Z,17.20
2023-03-30T12:32:29.067Z,16.80
2023-03-30T12:34:57.601Z,16.40
2023-03-30T12:37:33.579Z,16.70
2023-03-30T12:40:09.644Z,16.90
2023-03-30T12:42:46.238Z,17.00
2023-03-30T12:45:21.178Z,17.20
2023-03-30T12:48:04.082Z,17.40
2023-03-30T12:50:56.591Z,17.10
2023-03-30T12:56:05.030Z,17.70
2023-03-30T12:58:59.085Z,17.20
2023-03-30T13:01:54.635Z,17.30
2023-03-30T13:04:24.901Z,17.30
2023-03-30T13:07:05.222Z,17.40
2023-03-30T13:09:55.632Z,17.40
2023-03-30T13:14:59.018Z,17.40
2023-03-30T13:20:28.177Z,17.20
2023-03-30T13:23:12.457Z,17.50
2023-03-30T13:25:46.617Z,17.60
2023-03-30T13:28:54.926Z,17.60
2023-03-30T13:31:40.967Z,17.50
2023-03-30T13:34:23.655Z,17.70
2023-03-30T13:36:56.587Z,17.80
2023-03-30T13:39:39.888Z,18.00
2023-03-30T13:42:27.355Z,17.80
2023-03-30T13:45:08.474Z,17.60
2023-03-30T13:48:12.631Z,17.80
2023-03-30T13:53:11.104Z,18.10
2023-03-30T13:55:43.142Z,17.80
2023-03-30T13:58:23.371Z,18.00
2023-03-30T14:00:55.184Z,17.90
2023-03-30T14:03:47.644Z,18.10
2023-03-30T14:08:47.927Z,16.70
2023-03-30T14:11:36.714Z,16.30
2023-03-30T14:14:04.998Z,16.10
2023-03-30T14:16:36.667Z,15.60
2023-03-30T14:19:31.905Z,15.10
2023-03-30T14:22:14.105Z,14.00
2023-03-30T14:24:59.754Z,13.80
2023-03-30T14:27:35.724Z,13.30
2023-03-30T14:30:07.463Z,13.00
2023-03-30T14:32:34.746Z,13.70
2023-03-30T14:35:05.945Z,14.30
2023-03-30T14:37:35.100Z,14.60
2023-03-30T14:42:34.045Z,15.20
2023-03-30T14:47:29.219Z,14.80
2023-03-30T14:49:59.394Z,14.70
2023-03-30T14:52:39.381Z,14.50
2023-03-30T14:55:14.471Z,14.40
2023-03-30T14:57:46.344Z,14.80
2023-03-30T15:00:23.673Z,14.90
2023-03-30T15:02:59.846Z,14.60
2023-03-30T15:05:37.610Z,15.10
2023-03-30T15:08:05.957Z,15.20
2023-03-30T15:10:38.529Z,15.10
2023-03-30T15:13:07.695Z,15.00
2023-03-30T15:15:35.755Z,15.20
2023-03-30T15:18:04.239Z,15.40
2023-03-30T15:20:31.775Z,15.60
2023-03-30T15:23:00.762Z,15.60
2023-03-30T15:25:34.016Z,15.50
2023-03-30T15:28:06.734Z,15.40
2023-03-30T15:30:43.916Z,15.20
2023-03-30T15:33:29.879Z,15.10
2023-03-30T15:36:01.973Z,14.70
2023-03-30T15:38:35.946Z,14.90
2023-03-30T15:43:36.572Z,14.90
2023-03-30T15:46:06.387Z,14.60
2023-03-30T15:48:43.373Z,14.50
2023-03-30T15:51:33.208Z,14.70
2023-03-30T15:54:20.017Z,14.40
2023-03-30T15:57:04.045Z,14.60
2023-03-30T16:00:01.302Z,14.20
